Corbin City, New Jersey
Current Conditions -  °F | °C
As of 4:54 AM on Sunday 23 Nov 2014 (Local Time) from KMIV Reporting Station
Clear Clear  
Wind Chill:   Ceiling: Unl
Heat Index:   Visibility: 10mi
Dew Point: -4°   Wind: 3mph
Humidity: 51%   Direction: 200°SSW
Pressure: 30.22"   Gusts: NA
Location:  39.2589°N, 74.8124°W
Report Text: KMIV 230954Z AUTO 20003KT 10SM CLR 05/M04 A3022 RMK AO2 SLP234 T00501044
Loading
Personal Weather Stations






























Interactive Weather Map New forecast layout! Learn more

10-Day Weather Forecast

Advertisements
Track Severe Weather on mobile